Time;durP1;ratioP1;P1;durP2;ratioP2;P2;SDS_P1;SDS_P2;PMS_P1;PMS_P2;Temp;Humidity;BMP_temperature;BMP_pressure;BME280_temperature;BME280_humidity;BME280_pressure;Samples;Min_cycle;Max_cycle;Signal;HPM_P1;HPM_P2
2024/01/10 00:01:17;;;;;;;180.20;20.08;;;;;;;-3.21;100.00;103558.97;4933545;29;20187;-42
2024/01/10 00:03:42;;;;;;;101.43;18.67;;;;;;;-3.14;100.00;103562.03;4933610;29;20663;-40
2024/01/10 00:06:08;;;;;;;175.90;18.67;;;;;;;-3.28;100.00;103556.75;4933450;29;20290;-44
2024/01/10 00:08:33;;;;;;;119.93;18.42;;;;;;;-3.36;100.00;103551.94;4933715;29;20259;-42
2024/01/10 00:10:59;;;;;;;98.88;16.35;;;;;;;-3.27;100.00;103562.09;4933508;29;20210;-43
2024/01/10 00:13:24;;;;;;;100.22;17.00;;;;;;;-3.49;100.00;103554.59;4933509;29;20187;-42
2024/01/10 00:15:50;;;;;;;81.68;15.23;;;;;;;-3.54;100.00;103545.53;4933836;29;20179;-40
2024/01/10 00:18:15;;;;;;;150.05;17.65;;;;;;;-3.69;100.00;103547.19;4933564;29;20175;-43
2024/01/10 00:20:41;;;;;;;36.80;12.40;;;;;;;-3.56;100.00;103545.44;4933920;29;20580;-40
2024/01/10 00:23:07;;;;;;;40.70;13.95;;;;;;;-3.64;100.00;103532.66;4933545;29;20187;-41
2024/01/10 00:25:32;;;;;;;81.68;13.80;;;;;;;-3.72;100.00;103537.38;4933324;29;20200;-42
2024/01/10 00:27:58;;;;;;;25.45;13.30;;;;;;;-3.55;100.00;103533.22;4933647;29;20207;-41
2024/01/10 00:30:25;;;;;;;36.97;12.85;;;;;;;-3.53;100.00;103534.25;4933216;29;20194;-40
2024/01/10 00:32:51;;;;;;;37.10;13.32;;;;;;;-3.65;100.00;103541.31;4933739;29;20164;-40
2024/01/10 00:35:16;;;;;;;75.15;13.07;;;;;;;-3.73;100.00;103539.13;4933283;29;20210;-42
2024/01/10 00:37:42;;;;;;;33.70;12.05;;;;;;;-3.61;100.00;103530.22;4933313;29;20619;-43
2024/01/10 00:40:08;;;;;;;24.48;11.85;;;;;;;-3.51;100.00;103524.75;4933135;29;20274;-42
2024/01/10 00:42:33;;;;;;;40.88;12.63;;;;;;;-3.48;100.00;103537.16;4933337;29;20214;-42
2024/01/10 00:44:59;;;;;;;23.83;13.27;;;;;;;-3.53;100.00;103526.38;4933033;29;20255;-44
2024/01/10 00:47:24;;;;;;;42.53;13.30;;;;;;;-3.52;100.00;103529.09;4934248;29;20203;-41
2024/01/10 00:49:50;;;;;;;37.70;12.90;;;;;;;-3.54;100.00;103538.59;4937143;29;20175;-44
2024/01/10 00:52:15;;;;;;;41.47;14.48;;;;;;;-3.57;100.00;103532.22;4936919;29;20194;-41
2024/01/10 00:54:41;;;;;;;24.23;13.82;;;;;;;-3.46;100.00;103530.28;4936492;29;20573;-43
2024/01/10 00:57:06;;;;;;;28.13;12.98;;;;;;;-3.43;100.00;103515.69;4936767;29;20186;-42
2024/01/10 00:59:32;;;;;;;61.78;15.77;;;;;;;-3.42;100.00;103530.56;4936933;29;20649;-43
2024/01/10 01:01:57;;;;;;;58.75;15.00;;;;;;;-3.41;100.00;103532.41;4936593;29;20218;-40
2024/01/10 01:04:23;;;;;;;38.92;13.27;;;;;;;-3.40;100.00;103525.44;4936641;29;20203;-42
2024/01/10 01:06:48;;;;;;;51.97;16.90;;;;;;;-3.47;100.00;103520.63;4936365;29;20210;-41
2024/01/10 01:09:15;;;;;;;25.90;13.13;;;;;;;-3.35;100.00;103522.28;4936850;29;20591;-43
2024/01/10 01:11:41;;;;;;;35.65;13.93;;;;;;;-3.35;100.00;103518.75;4936497;29;20235;-43
2024/01/10 01:14:07;;;;;;;34.30;14.60;;;;;;;-3.38;100.00;103516.84;4936377;29;20214;-44
2024/01/10 01:16:33;;;;;;;27.13;13.48;;;;;;;-3.30;100.00;103514.72;4936670;29;20175;-42
2024/01/10 01:18:58;;;;;;;28.90;13.43;;;;;;;-3.24;100.00;103504.59;4935350;29;20171;-44
2024/01/10 01:21:24;;;;;;;122.60;17.90;;;;;;;-3.37;100.00;103513.44;4936347;29;20667;-43
2024/01/10 01:23:50;;;;;;;25.52;13.60;;;;;;;-3.35;100.00;103505.66;4935987;29;20206;-42
2024/01/10 01:26:15;;;;;;;26.08;13.95;;;;;;;-3.48;100.00;103501.34;4936095;29;20210;-41
2024/01/10 01:28:41;;;;;;;58.53;15.15;;;;;;;-3.55;100.00;103514.88;4936182;29;20180;-41
2024/01/10 01:31:06;;;;;;;46.75;13.93;;;;;;;-3.60;100.00;103503.22;4935999;29;20215;-42
2024/01/10 01:33:32;;;;;;;32.97;14.30;;;;;;;-3.60;100.00;103504.13;4936305;29;20550;-42
2024/01/10 01:35:58;;;;;;;24.30;12.35;;;;;;;-3.42;100.00;103508.72;4936075;29;20163;-43
2024/01/10 01:38:23;;;;;;;33.95;14.02;;;;;;;-3.47;100.00;103502.28;4935959;29;20201;-42
2024/01/10 01:40:49;;;;;;;37.67;15.50;;;;;;;-3.67;100.00;103507.19;4935791;29;20168;-40
2024/01/10 01:43:23;;;;;;;22.35;11.82;;;;;;;-3.56;100.00;103510.47;4934913;29;20241;-41
2024/01/10 01:45:52;;;;;;;25.20;12.45;;;;;;;-3.43;100.00;103502.56;4935688;29;20198;-42
2024/01/10 01:48:18;;;;;;;28.85;14.55;;;;;;;-3.46;100.00;103494.50;4936031;29;20180;-43
2024/01/10 01:50:45;;;;;;;33.47;16.25;;;;;;;-3.45;100.00;103501.56;4935790;29;20175;-42
2024/01/10 01:53:13;;;;;;;86.40;14.52;;;;;;;-3.54;100.00;103495.75;4935677;29;20185;-41
2024/01/10 01:55:40;;;;;;;26.60;13.07;;;;;;;-3.65;100.00;103495.09;4935585;29;20741;-41
2024/01/10 01:58:05;;;;;;;25.00;12.55;;;;;;;-3.70;100.00;103485.09;4935554;29;20215;-42
2024/01/10 02:00:31;;;;;;;23.15;12.05;;;;;;;-3.66;100.00;103487.13;4934948;29;20274;-41
2024/01/10 02:02:58;;;;;;;26.55;13.20;;;;;;;-3.80;100.00;103488.88;4935552;29;20488;-42
2024/01/10 02:05:25;;;;;;;113.00;14.88;;;;;;;-3.92;100.00;103488.97;4935662;29;20326;-40
2024/01/10 02:07:50;;;;;;;40.90;14.40;;;;;;;-3.96;100.00;103497.44;4935410;29;20263;-41
2024/01/10 02:10:16;;;;;;;25.88;13.57;;;;;;;-3.99;100.00;103492.91;4918322;29;20655;-41
2024/01/10 02:12:41;;;;;;;25.67;13.20;;;;;;;-3.84;100.00;103490.38;4935406;29;20713;-41
2024/01/10 02:15:07;;;;;;;26.63;13.80;;;;;;;-4.07;100.00;103482.75;4934419;29;20286;-43
2024/01/10 02:17:33;;;;;;;29.77;14.48;;;;;;;-3.94;100.00;103494.13;4935594;29;20242;-43
2024/01/10 02:20:18;;;;;;;23.27;14.00;;;;;;;-4.01;100.00;103477.91;4935406;29;20673;-41
2024/01/10 02:22:44;;;;;;;25.58;12.85;;;;;;;-3.91;100.00;103484.63;4935133;29;20311;-43
2024/01/10 02:25:10;;;;;;;27.45;14.90;;;;;;;-4.04;100.00;103473.41;4935278;29;20293;-40
2024/01/10 02:27:36;;;;;;;31.65;15.05;;;;;;;-4.01;100.00;103488.41;4935157;29;20222;-41
2024/01/10 02:30:04;;;;;;;24.92;13.05;;;;;;;-4.10;100.00;103479.97;4935087;29;20175;-41
2024/01/10 02:32:29;;;;;;;26.00;12.77;;;;;;;-3.99;100.00;103474.59;4935601;29;20171;-41
2024/01/10 02:34:55;;;;;;;23.92;14.32;;;;;;;-4.12;100.00;103479.84;4934834;29;20210;-45
2024/01/10 02:37:20;;;;;;;25.23;14.10;;;;;;;-4.22;100.00;103478.34;4934901;29;20168;-40
2024/01/10 02:39:46;;;;;;;23.55;13.45;;;;;;;-4.11;100.00;103478.13;4934821;29;20294;-45
2024/01/10 02:42:11;;;;;;;24.27;13.13;;;;;;;-4.09;100.00;103485.25;4934791;29;20184;-43
2024/01/10 02:44:37;;;;;;;20.50;12.25;;;;;;;-3.97;100.00;103482.56;4934780;29;20194;-43
2024/01/10 02:47:03;;;;;;;22.17;12.85;;;;;;;-4.17;100.00;103482.16;4935067;29;20309;-42
2024/01/10 02:49:28;;;;;;;24.88;13.93;;;;;;;-4.20;100.00;103468.91;4934841;29;20180;-43
2024/01/10 02:51:54;;;;;;;26.25;13.73;;;;;;;-4.19;100.00;103468.06;4933431;29;20175;-41
2024/01/10 02:54:19;;;;;;;27.55;14.40;;;;;;;-4.19;100.00;103473.31;4934548;29;20634;-40
2024/01/10 02:56:45;;;;;;;24.58;13.48;;;;;;;-4.15;100.00;103479.66;4934564;29;20529;-41
2024/01/10 02:59:10;;;;;;;25.65;13.93;;;;;;;-4.24;100.00;103485.19;4934496;29;20187;-41
2024/01/10 03:01:36;;;;;;;28.27;14.13;;;;;;;-4.29;100.00;103489.22;4934364;29;20179;-40
2024/01/10 03:04:01;;;;;;;34.38;14.18;;;;;;;-4.38;100.00;103493.84;4934493;29;20202;-40
2024/01/10 03:06:27;;;;;;;37.45;14.75;;;;;;;-4.32;100.00;103491.63;4934396;29;20374;-40
2024/01/10 03:08:54;;;;;;;47.80;14.55;;;;;;;-4.32;100.00;103488.13;4934360;29;20235;-41
2024/01/10 03:11:20;;;;;;;37.17;14.98;;;;;;;-4.32;100.00;103495.97;4934173;29;20226;-43
2024/01/10 03:13:47;;;;;;;35.85;15.82;;;;;;;-4.15;100.00;103493.66;4934195;29;20243;-40
2024/01/10 03:16:13;;;;;;;35.92;15.45;;;;;;;-3.99;100.00;103489.41;4934325;29;20171;-42
2024/01/10 03:18:39;;;;;;;50.40;15.18;;;;;;;-4.12;100.00;103494.66;4934349;29;20172;-41
2024/01/10 03:21:05;;;;;;;40.30;15.13;;;;;;;-4.05;100.00;103492.50;4933907;29;20551;-41
2024/01/10 03:23:30;;;;;;;32.08;15.48;;;;;;;-3.97;100.00;103495.66;4934307;29;20227;-41
2024/01/10 03:25:57;;;;;;;49.45;16.48;;;;;;;-3.84;100.00;103498.25;4934270;29;20655;-43
2024/01/10 03:28:23;;;;;;;31.55;16.05;;;;;;;-3.82;100.00;103482.63;4934123;29;20182;-43
2024/01/10 03:30:48;;;;;;;39.05;15.45;;;;;;;-3.82;100.00;103490.50;4934356;29;20178;-41
2024/01/10 03:33:15;;;;;;;79.80;17.35;;;;;;;-3.86;100.00;103485.84;4933923;29;20184;-41
2024/01/10 03:35:41;;;;;;;39.08;15.77;;;;;;;-3.79;100.00;103483.72;4933885;29;20199;-41
2024/01/10 03:38:07;;;;;;;40.22;17.23;;;;;;;-3.89;100.00;103493.50;4934077;29;20183;-41
2024/01/10 03:40:32;;;;;;;51.55;17.83;;;;;;;-3.71;100.00;103478.06;4933844;29;20688;-40
2024/01/10 03:42:58;;;;;;;57.88;18.27;;;;;;;-3.78;100.00;103487.25;4934079;29;20694;-40
2024/01/10 03:45:23;;;;;;;34.08;16.77;;;;;;;-3.74;100.00;103482.31;4934411;29;20332;-41
2024/01/10 03:47:50;;;;;;;41.25;17.73;;;;;;;-3.64;100.00;103486.41;4934275;29;20210;-40
2024/01/10 03:50:19;;;;;;;49.53;18.75;;;;;;;-3.66;100.00;103488.00;4932019;29;20711;-46
2024/01/10 03:52:44;;;;;;;38.97;17.52;;;;;;;-3.58;100.00;103471.06;4930970;29;20650;-46
2024/01/10 03:55:12;;;;;;;37.35;16.92;;;;;;;-3.52;100.00;103484.56;4930444;29;20666;-48
2024/01/10 03:57:42;;;;;;;44.75;19.08;;;;;;;-3.50;100.00;103484.63;4930891;29;20188;-46
2024/01/10 04:00:08;;;;;;;42.63;19.02;;;;;;;-3.60;100.00;103480.53;4930309;29;20183;-47
2024/01/10 04:02:35;;;;;;;51.13;20.67;;;;;;;-3.62;100.00;103479.53;4929946;29;20178;-46
2024/01/10 04:05:01;;;;;;;39.65;17.67;;;;;;;-3.46;100.00;103485.72;4929518;29;20709;-47
2024/01/10 04:07:28;;;;;;;46.75;19.50;;;;;;;-3.45;100.00;103493.69;4929854;29;20195;-46
2024/01/10 04:09:53;;;;;;;51.33;21.13;;;;;;;-3.44;100.00;103477.16;4931341;29;20203;-47
2024/01/10 04:12:19;;;;;;;47.60;21.45;;;;;;;-3.44;100.00;103484.13;4929943;29;20315;-47
2024/01/10 04:14:44;;;;;;;54.75;22.42;;;;;;;-3.38;100.00;103484.50;4930464;29;20219;-47
2024/01/10 04:17:10;;;;;;;47.03;20.83;;;;;;;-3.36;100.00;103490.75;4929310;29;20270;-46
2024/01/10 04:19:36;;;;;;;51.97;21.80;;;;;;;-3.26;100.00;103486.97;4930246;29;20713;-46
2024/01/10 04:22:01;;;;;;;49.20;21.27;;;;;;;-3.18;100.00;103493.59;4930139;29;20179;-47
2024/01/10 04:24:27;;;;;;;52.55;22.23;;;;;;;-3.20;100.00;103487.34;4933702;29;20210;-47
2024/01/10 04:26:52;;;;;;;49.50;20.52;;;;;;;-3.14;100.00;103486.00;4932954;29;20761;-47
2024/01/10 04:29:18;;;;;;;54.83;22.33;;;;;;;-3.12;100.00;103483.47;4933853;29;20187;-47
2024/01/10 04:31:43;;;;;;;47.67;20.70;;;;;;;-3.11;100.00;103491.41;4933649;29;20175;-46
2024/01/10 04:34:09;;;;;;;44.67;20.40;;;;;;;-3.06;100.00;103486.47;4933109;29;20218;-48
2024/01/10 04:36:34;;;;;;;42.20;19.27;;;;;;;-2.98;100.00;103479.94;4934251;29;20179;-46
2024/01/10 04:39:00;;;;;;;50.20;21.00;;;;;;;-2.96;100.00;103482.69;4933983;29;20274;-48
2024/01/10 04:41:26;;;;;;;49.63;20.83;;;;;;;-3.06;100.00;103467.19;4933069;29;20186;-45
2024/01/10 04:43:51;;;;;;;48.60;21.85;;;;;;;-3.02;100.00;103467.47;4933133;29;20199;-46
2024/01/10 04:46:17;;;;;;;43.90;20.48;;;;;;;-2.94;100.00;103467.94;4932588;29;20364;-46
2024/01/10 04:48:43;;;;;;;50.30;21.60;;;;;;;-3.06;100.00;103467.19;4933446;29;20187;-46
2024/01/10 04:51:08;;;;;;;47.60;21.02;;;;;;;-3.16;100.00;103461.41;4933352;29;20286;-46
2024/01/10 04:53:34;;;;;;;55.45;23.08;;;;;;;-3.13;100.00;103458.06;4934078;29;20214;-48
2024/01/10 04:56:00;;;;;;;53.80;22.95;;;;;;;-3.11;100.00;103465.19;4932897;29;20209;-46
2024/01/10 04:58:25;;;;;;;55.75;21.23;;;;;;;-3.02;100.00;103461.31;4933331;29;20175;-45
2024/01/10 05:00:52;;;;;;;53.67;23.15;;;;;;;-3.06;100.00;103462.88;4933644;29;20190;-46
2024/01/10 05:03:17;;;;;;;47.47;20.20;;;;;;;-2.95;100.00;103456.56;4915527;29;20238;-45
2024/01/10 05:05:43;;;;;;;50.15;21.08;;;;;;;-2.88;100.00;103460.44;4931691;29;21005;-46
2024/01/10 05:08:09;;;;;;;50.15;21.35;;;;;;;-2.84;100.00;103449.31;4933143;29;20682;-47
2024/01/10 05:10:34;;;;;;;55.38;22.35;;;;;;;-2.92;100.00;103447.94;4932822;29;20180;-45
2024/01/10 05:12:59;;;;;;;48.67;22.50;;;;;;;-2.96;100.00;103462.59;4933525;29;20674;-47
2024/01/10 05:15:25;;;;;;;52.40;23.17;;;;;;;-2.94;100.00;103454.81;4966622;23;20222;-46
2024/01/10 05:17:51;;;;;;;44.15;21.80;;;;;;;-2.92;100.00;103455.81;4952320;28;20205;-44
2024/01/10 05:20:16;;;;;;;50.65;22.77;;;;;;;-2.87;100.00;103453.47;4963154;28;20625;-47
2024/01/10 05:22:42;;;;;;;49.67;22.60;;;;;;;-2.79;100.00;103460.97;4967446;28;20238;-47
2024/01/10 05:25:08;;;;;;;50.47;23.40;;;;;;;-2.73;100.00;103463.97;4940133;28;20322;-46
2024/01/10 05:27:33;;;;;;;52.47;23.42;;;;;;;-2.65;100.00;103447.75;4941357;28;20242;-46
2024/01/10 05:29:59;;;;;;;51.95;22.58;;;;;;;-2.92;100.00;103443.59;4951075;28;20182;-44
2024/01/10 05:32:28;;;;;;;48.97;22.33;;;;;;;-2.75;100.00;103444.59;4947747;28;20179;-45
2024/01/10 05:34:54;;;;;;;49.22;23.02;;;;;;;-2.71;100.00;103450.94;4945963;28;20242;-43
2024/01/10 05:37:19;;;;;;;49.20;23.08;;;;;;;-2.76;100.00;103447.13;4942950;28;20246;-47
2024/01/10 05:39:45;;;;;;;51.20;23.25;;;;;;;-2.68;100.00;103451.09;4945007;28;20179;-47
2024/01/10 05:42:11;;;;;;;52.22;23.50;;;;;;;-2.63;100.00;103452.28;4917987;28;20273;-47
2024/01/10 05:44:36;;;;;;;46.15;21.48;;;;;;;-2.59;100.00;103450.75;4946344;28;20274;-49
2024/01/10 05:47:02;;;;;;;41.83;21.25;;;;;;;-2.56;100.00;103449.22;4932416;28;20206;-46
2024/01/10 05:49:28;;;;;;;49.13;23.50;;;;;;;-2.68;100.00;103439.72;4926868;29;20614;-46
2024/01/10 05:51:54;;;;;;;45.13;21.33;;;;;;;-2.66;100.00;103441.59;4943194;28;20217;-46
2024/01/10 05:54:19;;;;;;;42.22;21.98;;;;;;;-2.59;100.00;103435.88;4946591;28;20195;-46
2024/01/10 05:56:45;;;;;;;47.75;23.67;;;;;;;-2.60;100.00;103447.22;4943428;28;20183;-46
2024/01/10 05:59:11;;;;;;;48.70;22.90;;;;;;;-2.55;100.00;103450.09;4944637;28;20697;-47
2024/01/10 06:01:38;;;;;;;47.08;22.23;;;;;;;-2.46;100.00;103452.34;4947021;28;20262;-43
2024/01/10 06:04:05;;;;;;;50.45;23.95;;;;;;;-2.53;100.00;103441.50;4928316;28;20238;-41
2024/01/10 06:06:32;;;;;;;53.28;22.13;;;;;;;-2.61;100.00;103450.66;4946627;28;20206;-44
2024/01/10 06:08:57;;;;;;;49.42;22.35;;;;;;;-2.56;100.00;103449.22;4941870;28;20190;-43
2024/01/10 06:11:23;;;;;;;44.67;21.45;;;;;;;-2.54;100.00;103455.41;4944115;28;20183;-43
2024/01/10 06:13:48;;;;;;;44.78;21.45;;;;;;;-2.44;100.00;103448.09;4942239;28;20199;-44
2024/01/10 06:16:14;;;;;;;43.60;22.02;;;;;;;-2.45;100.00;103460.28;4945302;28;20612;-45
2024/01/10 06:18:40;;;;;;;41.45;20.92;;;;;;;-2.40;100.00;103458.88;4946154;28;20712;-47
2024/01/10 06:21:05;;;;;;;41.15;20.00;;;;;;;-2.32;100.00;103451.41;4944391;28;20623;-45
2024/01/10 06:23:31;;;;;;;46.40;21.73;;;;;;;-2.32;100.00;103451.41;4946347;28;20234;-45
2024/01/10 06:25:56;;;;;;;45.38;22.65;;;;;;;-2.37;100.00;103455.50;4945629;28;20179;-44
2024/01/10 06:28:23;;;;;;;44.95;22.67;;;;;;;-2.41;100.00;103457.03;4944789;28;20269;-46
2024/01/10 06:30:49;;;;;;;37.53;20.13;;;;;;;-2.36;100.00;103455.59;4944583;28;20178;-45
2024/01/10 06:33:15;;;;;;;41.05;21.15;;;;;;;-2.32;100.00;103457.59;4930176;28;20191;-46
2024/01/10 06:35:45;;;;;;;48.33;23.08;;;;;;;-2.33;100.00;103454.88;4944861;28;20609;-48
2024/01/10 06:38:11;;;;;;;42.42;20.30;;;;;;;-2.26;100.00;103461.38;4946018;28;20178;-47
2024/01/10 06:40:36;;;;;;;43.33;21.85;;;;;;;-2.25;100.00;103450.97;4931150;29;20187;-46
2024/01/10 06:43:04;;;;;;;46.13;21.10;;;;;;;-2.30;100.00;103447.16;4941580;28;20614;-46
2024/01/10 06:45:30;;;;;;;38.03;20.17;;;;;;;-2.25;100.00;103453.59;4944091;28;20257;-43
2024/01/10 06:47:56;;;;;;;44.42;21.50;;;;;;;-2.30;100.00;103453.34;4914534;29;20203;-42
2024/01/10 06:50:22;;;;;;;40.55;20.40;;;;;;;-2.21;100.00;103452.91;4945056;28;20202;-50
2024/01/10 06:52:48;;;;;;;37.67;20.55;;;;;;;-2.18;100.00;103450.47;4941948;28;20191;-44
2024/01/10 06:55:14;;;;;;;46.83;25.17;;;;;;;-2.33;100.00;103445.25;4932190;28;20229;-43
2024/01/10 06:57:39;;;;;;;45.28;20.42;;;;;;;-2.26;100.00;103457.00;4937963;28;20698;-45
2024/01/10 07:00:10;;;;;;;38.92;19.80;;;;;;;-2.22;100.00;103450.22;4949306;28;20194;-47
2024/01/10 07:02:39;;;;;;;38.45;19.70;;;;;;;-2.23;100.00;103449.34;4938991;28;20384;-48
2024/01/10 07:05:09;;;;;;;47.33;20.77;;;;;;;-2.14;100.00;103452.47;4928525;28;20280;-46
2024/01/10 07:07:35;;;;;;;43.28;20.33;;;;;;;-2.09;100.00;103448.38;4944840;28;20229;-46
2024/01/10 07:10:04;;;;;;;41.53;18.67;;;;;;;-2.09;100.00;103437.84;4944512;28;20630;-46
2024/01/10 07:12:33;;;;;;;39.45;18.58;;;;;;;-2.04;100.00;103443.38;4942324;28;20238;-47
2024/01/10 07:14:59;;;;;;;41.67;20.42;;;;;;;-2.08;100.00;103451.88;4943701;28;20217;-46
2024/01/10 07:17:25;;;;;;;36.13;17.95;;;;;;;-2.13;100.00;103446.38;4944331;28;20803;-47
2024/01/10 07:19:50;;;;;;;41.67;20.92;;;;;;;-2.15;100.00;103449.75;4933075;29;20178;-47
2024/01/10 07:22:17;;;;;;;37.67;19.38;;;;;;;-2.07;100.00;103451.97;4945644;28;20357;-46
2024/01/10 07:24:43;;;;;;;39.35;19.77;;;;;;;-2.03;100.00;103447.81;4923482;29;20298;-45
2024/01/10 07:27:09;;;;;;;38.47;18.58;;;;;;;-1.96;100.00;103451.69;4942994;28;20289;-46
2024/01/10 07:29:35;;;;;;;40.45;21.25;;;;;;;-1.92;100.00;103445.78;4938431;28;20633;-46
2024/01/10 07:32:00;;;;;;;44.33;22.08;;;;;;;-1.95;100.00;103437.72;4943707;28;20194;-48
2024/01/10 07:34:26;;;;;;;44.33;22.92;;;;;;;-1.87;100.00;103437.31;4946845;28;20193;-46
2024/01/10 07:36:54;;;;;;;40.15;20.08;;;;;;;-1.99;100.00;103438.38;4930337;29;20281;-47
2024/01/10 07:39:19;;;;;;;36.63;18.65;;;;;;;-1.97;100.00;103444.59;4926491;28;20253;-47
2024/01/10 07:41:45;;;;;;;38.15;17.88;;;;;;;-2.00;100.00;103445.34;4941308;28;20180;-45
2024/01/10 07:44:12;;;;;;;33.30;17.00;;;;;;;-1.92;100.00;103449.31;4921284;28;20215;-45
2024/01/10 07:46:38;;;;;;;36.80;18.75;;;;;;;-1.92;100.00;103448.41;4948405;28;20194;-46
2024/01/10 07:49:04;;;;;;;30.88;15.52;;;;;;;-1.94;100.00;103450.06;4943722;28;20630;-45
2024/01/10 07:51:31;;;;;;;29.88;13.98;;;;;;;-1.90;100.00;103439.78;4943406;28;20188;-47
2024/01/10 07:53:56;;;;;;;32.53;13.48;;;;;;;-1.88;100.00;103445.09;4943233;28;20288;-46
2024/01/10 07:56:22;;;;;;;28.88;13.00;;;;;;;-1.91;100.00;103439.69;4945008;28;20171;-46
2024/01/10 07:58:48;;;;;;;29.38;14.13;;;;;;;-1.92;100.00;103443.16;4939984;28;20273;-46
2024/01/10 08:01:14;;;;;;;32.25;14.13;;;;;;;-1.85;100.00;103439.16;4941284;28;20178;-46
2024/01/10 08:03:40;;;;;;;28.65;13.77;;;;;;;-1.79;100.00;103445.63;4948166;28;20187;-46
2024/01/10 08:06:06;;;;;;;30.05;14.52;;;;;;;-1.74;100.00;103441.53;4944822;28;20194;-45
2024/01/10 08:08:31;;;;;;;28.88;13.15;;;;;;;-1.78;100.00;103442.19;4945761;28;20187;-47
2024/01/10 08:10:57;;;;;;;36.00;16.65;;;;;;;-1.74;100.00;103444.16;4925799;29;20194;-46
2024/01/10 08:13:22;;;;;;;28.80;15.00;;;;;;;-1.74;100.00;103440.63;4931537;28;20515;-47
2024/01/10 08:15:48;;;;;;;34.15;15.18;;;;;;;-1.77;100.00;103433.50;4947913;28;20194;-46
2024/01/10 08:18:14;;;;;;;36.55;16.65;;;;;;;-1.71;100.00;103443.41;4946934;28;20256;-46
2024/01/10 08:20:40;;;;;;;34.35;16.02;;;;;;;-1.73;100.00;103439.78;4944227;28;20250;-46
2024/01/10 08:23:05;;;;;;;35.97;17.38;;;;;;;-1.68;100.00;103444.50;4926259;29;20191;-47
2024/01/10 08:25:31;;;;;;;36.60;16.77;;;;;;;-1.66;100.00;103441.97;4946907;28;20241;-47
2024/01/10 08:27:57;;;;;;;42.42;18.15;;;;;;;-1.58;100.00;103416.06;4943740;28;20342;-46
2024/01/10 08:30:23;;;;;;;42.17;17.25;;;;;;;-1.65;100.00;103427.97;4945660;28;20191;-45
2024/01/10 08:32:49;;;;;;;40.25;17.25;;;;;;;-1.68;100.00;103420.84;4926752;29;20179;-45
2024/01/10 08:35:15;;;;;;;51.72;20.50;;;;;;;-1.68;100.00;103417.31;4931691;28;20630;-45
2024/01/10 08:37:42;;;;;;;57.58;22.05;;;;;;;-1.66;100.00;103427.09;4928820;29;20197;-47
2024/01/10 08:40:11;;;;;;;46.45;19.85;;;;;;;-1.58;100.00;103427.47;4940904;28;20182;-46
2024/01/10 08:42:38;;;;;;;52.42;20.65;;;;;;;-1.53;100.00;103417.22;4942005;28;20263;-46
2024/01/10 08:45:04;;;;;;;56.45;23.42;;;;;;;-1.62;100.00;103416.72;4946724;28;20224;-46
2024/01/10 08:47:32;;;;;;;63.75;23.85;;;;;;;-1.66;100.00;103424.47;4946813;28;20190;-46
2024/01/10 08:50:02;;;;;;;49.45;22.08;;;;;;;-1.54;100.00;103423.31;4940889;28;20555;-46
2024/01/10 08:52:27;;;;;;;55.97;22.67;;;;;;;-1.62;100.00;103429.88;4943727;28;20206;-47
2024/01/10 08:54:53;;;;;;;52.58;21.20;;;;;;;-1.60;100.00;103426.50;4931076;29;20281;-47
2024/01/10 08:57:18;;;;;;;57.30;22.60;;;;;;;-1.69;100.00;103426.00;4948365;28;20566;-46
2024/01/10 08:59:44;;;;;;;55.03;23.02;;;;;;;-1.69;100.00;103424.28;4939729;28;20195;-47
2024/01/10 09:02:10;;;;;;;58.35;21.95;;;;;;;-1.58;100.00;103429.22;4943222;28;20190;-47
2024/01/10 09:04:36;;;;;;;53.80;22.50;;;;;;;-1.52;100.00;103424.28;4942372;28;20214;-47
2024/01/10 09:07:01;;;;;;;60.42;23.23;;;;;;;-1.48;100.00;103423.63;4943832;28;20704;-47
2024/01/10 09:09:27;;;;;;;57.22;23.30;;;;;;;-1.58;100.00;103432.72;4942526;28;20657;-46
2024/01/10 09:11:53;;;;;;;57.65;22.23;;;;;;;-1.60;100.00;103437.00;4944130;28;20676;-47
2024/01/10 09:14:19;;;;;;;56.22;21.98;;;;;;;-1.47;100.00;103422.78;4947091;28;20312;-46
2024/01/10 09:16:46;;;;;;;52.42;21.90;;;;;;;-1.41;100.00;103441.53;4932238;29;20170;-46
2024/01/10 09:19:15;;;;;;;57.40;23.17;;;;;;;-1.43;100.00;103432.66;4945751;28;20175;-46
2024/01/10 09:21:41;;;;;;;62.70;24.60;;;;;;;-1.41;100.00;103438.00;4933940;29;20186;-47
2024/01/10 09:24:08;;;;;;;66.68;25.10;;;;;;;-1.48;100.00;103440.31;4944417;28;20554;-45
2024/01/10 09:26:35;;;;;;;60.00;23.45;;;;;;;-1.36;100.00;103447.94;4948233;28;20620;-46
2024/01/10 09:29:00;;;;;;;55.83;22.92;;;;;;;-1.40;100.00;103446.00;4931830;29;20182;-46
2024/01/10 09:31:26;;;;;;;54.40;20.75;;;;;;;-1.36;100.00;103447.94;4933632;28;20194;-46
2024/01/10 09:33:51;;;;;;;56.28;19.05;;;;;;;-1.25;100.00;103441.53;4945962;28;20337;-46
2024/01/10 09:36:17;;;;;;;60.47;20.88;;;;;;;-1.31;100.00;103440.31;4943603;28;20194;-46
2024/01/10 09:38:42;;;;;;;50.63;18.98;;;;;;;-1.27;100.00;103444.88;4944947;28;20241;-46
2024/01/10 09:41:11;;;;;;;53.47;21.08;;;;;;;-1.41;100.00;103452.06;4949287;28;20887;-48
2024/01/10 09:43:36;;;;;;;56.20;22.95;;;;;;;-1.46;100.00;103456.16;4944615;28;20606;-45
2024/01/10 09:46:05;;;;;;;55.10;21.73;;;;;;;-1.51;100.00;103460.25;4947311;28;20281;-46
2024/01/10 09:48:31;;;;;;;50.42;20.25;;;;;;;-1.64;100.00;103452.53;4945746;28;20202;-46
2024/01/10 09:50:57;;;;;;;53.35;21.48;;;;;;;-1.45;100.00;103458.84;4946015;28;20669;-46
2024/01/10 09:53:24;;;;;;;62.10;22.55;;;;;;;-1.51;100.00;103458.56;4946147;28;20197;-47
2024/01/10 09:55:49;;;;;;;58.60;23.70;;;;;;;-1.45;100.00;103458.84;4942722;28;20188;-46
2024/01/10 09:58:15;;;;;;;55.83;21.48;;;;;;;-1.13;100.00;103456.16;4944098;28;20585;-44
2024/01/10 10:00:41;;;;;;;65.13;24.67;;;;;;;-1.19;100.00;103448.81;4927642;28;20577;-45
2024/01/10 10:03:12;;;;;;;57.72;23.73;;;;;;;-1.22;100.00;103445.13;4946927;28;20246;-45
2024/01/10 10:05:40;;;;;;;62.85;24.27;;;;;;;-1.27;100.00;103450.13;4930305;28;20220;-46
2024/01/10 10:08:11;;;;;;;65.65;24.40;;;;;;;-1.19;100.00;103440.94;4934607;29;20207;-46
2024/01/10 10:10:42;;;;;;;65.70;24.15;;;;;;;-1.31;100.00;103446.47;4947499;28;20186;-46
2024/01/10 10:13:12;;;;;;;54.30;21.33;;;;;;;-1.36;100.00;103450.56;4930479;29;20183;-47
2024/01/10 10:15:37;;;;;;;53.28;21.52;;;;;;;-1.21;100.00;103444.31;4947311;28;20241;-47
2024/01/10 10:18:03;;;;;;;64.32;22.35;;;;;;;-1.26;100.00;103444.06;4947370;28;20175;-46
2024/01/10 10:20:37;;;;;;;58.13;21.67;;;;;;;-1.27;100.00;103443.19;4936176;28;20199;-46
2024/01/10 10:23:09;;;;;;;62.72;22.23;;;;;;;-1.36;100.00;103449.66;4944637;28;20215;-47
2024/01/10 10:25:42;;;;;;;49.85;20.73;;;;;;;-1.38;100.00;103436.41;4947093;28;20207;-48
2024/01/10 10:28:08;;;;;;;53.20;21.90;;;;;;;-1.39;100.00;103441.63;4946294;28;20301;-46
2024/01/10 10:30:34;;;;;;;51.70;20.42;;;;;;;-1.24;100.00;103426.66;4945362;28;20322;-46
2024/01/10 10:33:01;;;;;;;52.33;21.80;;;;;;;-1.18;100.00;103434.88;4946259;28;20194;-46
2024/01/10 10:35:27;;;;;;;55.47;22.58;;;;;;;-1.33;100.00;103439.31;4943371;28;20223;-45
2024/01/10 10:37:53;;;;;;;52.50;21.58;;;;;;;-1.14;100.00;103439.44;4944687;28;20229;-47
2024/01/10 10:40:21;;;;;;;55.00;21.55;;;;;;;-1.03;100.00;103440.00;4945807;28;20199;-45
2024/01/10 10:42:49;;;;;;;48.58;20.70;;;;;;;-1.11;100.00;103429.09;4945925;28;20192;-47
2024/01/10 10:45:19;;;;;;;59.53;21.63;;;;;;;-0.97;100.00;103427.16;4944874;28;20718;-46
2024/01/10 10:47:49;;;;;;;56.47;21.40;;;;;;;-1.10;100.00;103435.25;4946949;28;20212;-48
2024/01/10 10:50:22;;;;;;;48.85;21.20;;;;;;;-1.10;100.00;103441.41;4945850;28;20560;-47
2024/01/10 10:52:49;;;;;;;53.78;21.02;;;;;;;-1.07;100.00;103440.69;4944417;28;20253;-46
2024/01/10 10:55:16;;;;;;;53.45;21.23;;;;;;;-1.21;100.00;103441.69;4944617;28;20214;-46
2024/01/10 10:57:46;;;;;;;50.78;19.75;;;;;;;-1.07;100.00;103436.31;4942280;28;20178;-46